sensor_id;sensor_type;location;lat;lon;timestamp;P1;P4;P2;P0;N10;N4;N25;N1;N05;TS
73616;SPS30;61913;52.312;4.858;2023-04-25T00:01:00;5.70;5.40;4.85;3.94;31.53;31.49;31.34;30.56;25.67;0.59
73616;SPS30;61913;52.312;4.858;2023-04-25T00:03:27;5.58;5.30;4.79;3.93;31.47;31.43;31.30;30.57;25.77;0.58
73616;SPS30;61913;52.312;4.858;2023-04-25T00:05:56;5.13;4.89;4.45;3.69;29.53;29.50;29.38;28.74;24.31;0.56
73616;SPS30;61913;52.312;4.858;2023-04-25T00:08:23;5.75;5.44;4.88;3.95;31.67;31.63;31.48;30.69;25.76;0.57
73616;SPS30;61913;52.312;4.858;2023-04-25T00:10:49;6.20;5.85;5.23;4.20;33.63;33.58;33.41;32.52;27.23;0.58
73616;SPS30;61913;52.312;4.858;2023-04-25T00:13:16;5.56;5.29;4.79;3.94;31.58;31.55;31.41;30.70;25.91;0.56
73616;SPS30;61913;52.312;4.858;2023-04-25T00:15:43;5.35;5.12;4.71;3.96;31.73;31.70;31.59;30.98;26.34;0.57
73616;SPS30;61913;52.312;4.858;2023-04-25T00:18:10;5.08;4.86;4.46;3.74;29.90;29.87;29.76;29.17;24.76;0.56
73616;SPS30;61913;52.312;4.858;2023-04-25T00:20:37;5.60;5.33;4.85;4.02;32.19;32.15;32.02;31.33;26.49;0.57
73616;SPS30;61913;52.312;4.858;2023-04-25T00:23:04;5.51;5.21;4.67;3.77;30.18;30.14;30.00;29.22;24.51;0.59
73616;SPS30;61913;52.312;4.858;2023-04-25T00:25:31;5.26;4.98;4.48;3.65;29.22;29.18;29.05;28.34;23.83;0.59
73616;SPS30;61913;52.312;4.858;2023-04-25T00:27:58;5.48;5.20;4.67;3.80;30.45;30.41;30.27;29.52;24.82;0.59
73616;SPS30;61913;52.312;4.858;2023-04-25T00:30:24;5.11;4.85;4.37;3.57;28.60;28.57;28.44;27.76;23.37;0.59
73616;SPS30;61913;52.312;4.858;2023-04-25T00:32:51;5.22;4.93;4.41;3.56;28.49;28.46;28.32;27.58;23.11;0.58
73616;SPS30;61913;52.312;4.858;2023-04-25T00:35:17;5.29;4.99;4.43;3.52;28.23;28.19;28.04;27.26;22.75;0.59
73616;SPS30;61913;52.312;4.858;2023-04-25T00:37:44;5.61;5.28;4.67;3.70;29.67;29.63;29.47;28.62;23.85;0.60
73616;SPS30;61913;52.312;4.858;2023-04-25T00:40:11;5.38;5.12;4.66;3.85;30.84;30.81;30.68;30.01;25.36;0.58
73616;SPS30;61913;52.312;4.858;2023-04-25T00:42:38;5.56;5.33;4.90;4.13;33.04;33.01;32.89;32.27;27.43;0.58
73616;SPS30;61913;52.312;4.858;2023-04-25T00:45:05;4.99;4.76;4.34;3.61;28.93;28.90;28.79;28.19;23.87;0.59
73616;SPS30;61913;52.312;4.858;2023-04-25T00:47:33;4.67;4.46;4.09;3.43;27.48;27.46;27.36;26.81;22.76;0.57
73616;SPS30;61913;52.312;4.858;2023-04-25T00:50:02;4.64;4.41;4.01;3.31;26.52;26.49;26.38;25.79;21.79;0.58
73616;SPS30;61913;52.312;4.858;2023-04-25T00:52:29;5.08;4.81;4.32;3.51;28.08;28.05;27.92;27.22;22.87;0.59
73616;SPS30;61913;52.312;4.858;2023-04-25T00:54:55;5.17;4.87;4.34;3.47;27.84;27.80;27.66;26.90;22.50;0.61
73616;SPS30;61913;52.312;4.858;2023-04-25T00:57:22;4.69;4.46;4.04;3.33;26.69;26.66;26.55;25.95;21.91;0.60
73616;SPS30;61913;52.312;4.858;2023-04-25T00:59:48;4.02;3.84;3.52;2.95;23.59;23.56;23.48;23.00;19.52;0.58
73616;SPS30;61913;52.312;4.858;2023-04-25T01:02:18;4.27;4.09;3.76;3.17;25.35;25.33;25.24;24.76;21.04;0.59
73616;SPS30;61913;52.312;4.858;2023-04-25T01:04:45;4.57;4.36;3.97;3.30;26.43;26.40;26.30;25.74;21.78;0.60
73616;SPS30;61913;52.312;4.858;2023-04-25T01:07:11;4.75;4.49;4.01;3.22;25.79;25.76;25.63;24.95;20.89;0.62
73616;SPS30;61913;52.312;4.858;2023-04-25T01:09:38;4.95;4.63;4.05;3.15;25.23;25.19;25.04;24.23;20.05;0.64
73616;SPS30;61913;52.312;4.858;2023-04-25T01:12:05;4.76;4.48;3.98;3.18;25.45;25.41;25.28;24.57;20.52;0.61
73616;SPS30;61913;52.312;4.858;2023-04-25T01:14:31;4.31;4.07;3.63;2.91;23.35;23.32;23.21;22.59;18.91;0.61
73616;SPS30;61913;52.312;4.858;2023-04-25T01:16:58;5.05;4.75;4.20;3.32;26.63;26.59;26.44;25.67;21.38;0.63
73616;SPS30;61913;52.312;4.858;2023-04-25T01:19:25;4.97;4.68;4.15;3.29;26.39;26.36;26.21;25.47;21.24;0.61
73616;SPS30;61913;52.312;4.858;2023-04-25T01:21:52;4.91;4.59;4.00;3.08;24.70;24.66;24.50;23.68;19.54;0.64
73616;SPS30;61913;52.312;4.858;2023-04-25T01:24:18;4.84;4.53;3.97;3.09;24.80;24.77;24.62;23.83;19.74;0.62
73616;SPS30;61913;52.312;4.858;2023-04-25T01:26:45;5.29;4.92;4.26;3.25;26.06;26.01;25.84;24.92;20.48;0.64
73616;SPS30;61913;52.312;4.858;2023-04-25T01:29:17;5.31;4.91;4.17;3.08;24.70;24.65;24.46;23.45;19.03;0.65
73616;SPS30;61913;52.312;4.858;2023-04-25T01:31:44;5.15;4.74;3.99;2.87;23.09;23.04;22.84;21.81;17.55;0.66
73616;SPS30;61913;52.312;4.858;2023-04-25T01:34:11;4.90;4.54;3.89;2.91;23.36;23.31;23.14;22.25;18.15;0.64
73616;SPS30;61913;52.312;4.858;2023-04-25T01:36:38;4.99;4.62;3.95;2.94;23.57;23.53;23.35;22.42;18.26;0.65
73616;SPS30;61913;52.312;4.858;2023-04-25T01:39:04;4.95;4.57;3.89;2.87;23.07;23.03;22.85;21.91;17.80;0.65
73616;SPS30;61913;52.312;4.858;2023-04-25T01:41:31;4.99;4.64;4.00;3.03;24.32;24.28;24.11;23.23;19.05;0.64
73616;SPS30;61913;52.312;4.858;2023-04-25T01:43:57;4.72;4.39;3.81;2.91;23.31;23.28;23.12;22.31;18.35;0.64
73616;SPS30;61913;52.312;4.858;2023-04-25T01:46:24;4.72;4.40;3.83;2.94;23.58;23.54;23.39;22.59;18.62;0.63
73616;SPS30;61913;52.312;4.858;2023-04-25T01:48:51;5.04;4.69;4.04;3.06;24.53;24.48;24.31;23.42;19.19;0.64
73616;SPS30;61913;52.312;4.858;2023-04-25T01:51:18;5.02;4.67;4.02;3.04;24.40;24.36;24.19;23.30;19.09;0.64
73616;SPS30;61913;52.312;4.858;2023-04-25T01:53:44;4.72;4.39;3.81;2.91;23.33;23.29;23.13;22.32;18.36;0.63
73616;SPS30;61913;52.312;4.858;2023-04-25T01:56:11;4.59;4.29;3.73;2.87;23.04;23.00;22.86;22.09;18.22;0.62
73616;SPS30;61913;52.312;4.858;2023-04-25T01:58:38;4.41;4.13;3.62;2.82;22.60;22.57;22.43;21.72;18.00;0.60
73616;SPS30;61913;52.312;4.858;2023-04-25T02:01:04;4.68;4.39;3.87;3.04;24.41;24.37;24.23;23.50;19.53;0.60
73616;SPS30;61913;52.312;4.858;2023-04-25T02:03:31;4.18;3.93;3.48;2.75;22.05;22.02;21.90;21.26;17.71;0.60
73616;SPS30;61913;52.312;4.858;2023-04-25T02:05:58;5.02;4.69;4.09;3.15;25.26;25.22;25.06;24.22;19.99;0.64
73616;SPS30;61913;52.312;4.858;2023-04-25T02:08:25;4.42;4.15;3.65;2.86;22.92;22.89;22.75;22.06;18.31;0.63
73616;SPS30;61913;52.312;4.858;2023-04-25T02:10:52;4.97;4.65;4.06;3.15;25.24;25.20;25.04;24.22;20.03;0.64
73616;SPS30;61913;52.312;4.858;2023-04-25T02:13:19;4.94;4.61;3.99;3.04;24.40;24.36;24.19;23.34;19.19;0.64
73616;SPS30;61913;52.312;4.858;2023-04-25T02:15:45;4.79;4.46;3.86;2.94;23.62;23.58;23.43;22.59;18.57;0.64
73616;SPS30;61913;52.312;4.858;2023-04-25T02:18:12;4.60;4.30;3.76;2.91;23.36;23.32;23.18;22.42;18.54;0.62
73616;SPS30;61913;52.312;4.858;2023-04-25T02:20:39;4.70;4.40;3.87;3.02;24.20;24.16;24.02;23.27;19.29;0.63
73616;SPS30;61913;52.312;4.858;2023-04-25T02:23:05;4.51;4.23;3.71;2.90;23.24;23.21;23.07;22.35;18.54;0.63
73616;SPS30;61913;52.312;4.858;2023-04-25T02:25:32;4.57;4.28;3.75;2.92;23.38;23.34;23.20;22.46;18.60;0.63
73616;SPS30;61913;52.312;4.858;2023-04-25T02:27:58;4.91;4.57;3.95;3.00;24.07;24.03;23.87;23.00;18.88;0.65
73616;SPS30;61913;52.312;4.858;2023-04-25T02:30:25;4.95;4.63;4.05;3.14;25.18;25.14;24.98;24.17;19.99;0.63
73616;SPS30;61913;52.312;4.858;2023-04-25T02:32:51;5.19;4.84;4.21;3.24;25.98;25.93;25.77;24.89;20.52;0.64
73616;SPS30;61913;52.312;4.858;2023-04-25T02:35:18;4.52;4.25;3.74;2.94;23.54;23.51;23.37;22.66;18.83;0.62
73616;SPS30;61913;52.312;4.858;2023-04-25T02:37:44;4.31;4.06;3.61;2.87;23.01;22.98;22.86;22.22;18.55;0.62
73616;SPS30;61913;52.312;4.858;2023-04-25T02:40:11;4.00;3.79;3.39;2.73;21.89;21.86;21.75;21.19;17.76;0.60
73616;SPS30;61913;52.312;4.858;2023-04-25T02:42:38;4.11;3.87;3.42;2.71;21.73;21.70;21.59;20.96;17.47;0.61
73616;SPS30;61913;52.312;4.858;2023-04-25T02:45:05;3.73;3.50;3.09;2.43;19.45;19.42;19.31;18.73;15.56;0.62
73616;SPS30;61913;52.312;4.858;2023-04-25T02:47:31;3.40;3.18;2.79;2.17;17.40;17.38;17.27;16.72;13.85;0.62
73616;SPS30;61913;52.312;4.858;2023-04-25T02:49:58;2.83;2.65;2.33;1.81;14.54;14.52;14.43;13.97;11.58;0.63
73616;SPS30;61913;52.312;4.858;2023-04-25T02:52:25;2.86;2.68;2.35;1.82;14.61;14.59;14.50;14.04;11.62;0.62
73616;SPS30;61913;52.312;4.858;2023-04-25T02:54:51;2.85;2.66;2.33;1.81;14.53;14.51;14.42;13.96;11.55;0.62
73616;SPS30;61913;52.312;4.858;2023-04-25T02:57:18;2.82;2.65;2.35;1.85;14.86;14.84;14.76;14.32;11.93;0.60
73616;SPS30;61913;52.312;4.858;2023-04-25T02:59:44;2.94;2.76;2.43;1.91;15.33;15.31;15.23;14.77;12.28;0.60
73616;SPS30;61913;52.312;4.858;2023-04-25T03:02:11;3.18;2.99;2.64;2.08;16.70;16.68;16.58;16.09;13.39;0.60
73616;SPS30;61913;52.312;4.858;2023-04-25T03:04:37;2.99;2.80;2.45;1.91;15.35;15.32;15.23;14.75;12.22;0.60
73616;SPS30;61913;52.312;4.858;2023-04-25T03:07:04;2.98;2.78;2.42;1.86;14.89;14.86;14.77;14.26;11.75;0.61
73616;SPS30;61913;52.312;4.858;2023-04-25T03:09:31;3.39;3.17;2.77;2.14;17.20;17.17;17.07;16.51;13.64;0.60
73616;SPS30;61913;52.312;4.858;2023-04-25T03:11:58;3.23;3.05;2.72;2.19;17.52;17.50;17.41;16.95;14.19;0.57
73616;SPS30;61913;52.312;4.858;2023-04-25T03:14:24;2.96;2.81;2.54;2.07;16.60;16.58;16.51;16.11;13.57;0.57
73616;SPS30;61913;52.312;4.858;2023-04-25T03:16:51;2.65;2.53;2.31;1.92;15.39;15.37;15.31;14.99;12.70;0.57
73616;SPS30;61913;52.312;4.858;2023-04-25T03:19:17;3.00;2.86;2.61;2.16;17.32;17.30;17.23;16.86;14.27;0.57
73616;SPS30;61913;52.312;4.858;2023-04-25T03:21:44;3.36;3.17;2.83;2.28;18.24;18.22;18.13;17.65;14.78;0.59
73616;SPS30;61913;52.312;4.858;2023-04-25T03:24:11;3.33;3.15;2.83;2.30;18.44;18.42;18.33;17.88;15.02;0.60
73616;SPS30;61913;52.312;4.858;2023-04-25T03:26:38;3.29;3.12;2.79;2.26;18.10;18.07;17.99;17.53;14.71;0.60
73616;SPS30;61913;52.312;4.858;2023-04-25T03:29:04;2.78;2.65;2.42;2.01;16.07;16.05;15.99;15.65;13.24;0.57
73616;SPS30;61913;52.312;4.858;2023-04-25T03:31:31;3.09;2.96;2.74;2.32;18.55;18.54;18.48;18.14;15.45;0.57
73616;SPS30;61913;52.312;4.858;2023-04-25T03:33:57;2.84;2.72;2.50;2.10;16.78;16.76;16.70;16.37;13.91;0.60
73616;SPS30;61913;52.312;4.858;2023-04-25T03:36:24;2.87;2.74;2.51;2.11;16.86;16.84;16.78;16.44;13.95;0.59
73616;SPS30;61913;52.312;4.858;2023-04-25T03:38:50;2.66;2.56;2.37;2.03;16.21;16.20;16.15;15.87;13.55;0.55
73616;SPS30;61913;52.312;4.858;2023-04-25T03:41:17;2.82;2.70;2.49;2.11;16.85;16.84;16.78;16.47;14.02;0.58
73616;SPS30;61913;52.312;4.858;2023-04-25T03:43:43;3.34;3.17;2.86;2.33;18.68;18.66;18.57;18.12;15.25;0.62
73616;SPS30;61913;52.312;4.858;2023-04-25T03:46:10;2.88;2.74;2.49;2.06;16.51;16.49;16.42;16.06;13.57;0.59
73616;SPS30;61913;52.312;4.858;2023-04-25T03:48:37;3.07;2.93;2.67;2.21;17.72;17.70;17.63;17.25;14.60;0.58
73616;SPS30;61913;52.312;4.858;2023-04-25T03:51:03;2.96;2.82;2.55;2.10;16.84;16.82;16.75;16.37;13.82;0.59
73616;SPS30;61913;52.312;4.858;2023-04-25T03:53:30;2.93;2.77;2.49;2.03;16.23;16.21;16.14;15.74;13.23;0.59
73616;SPS30;61913;52.312;4.858;2023-04-25T03:55:57;2.73;2.59;2.34;1.92;15.36;15.34;15.28;14.92;12.57;0.59
73616;SPS30;61913;52.312;4.858;2023-04-25T03:58:23;3.01;2.84;2.53;2.02;16.20;16.18;16.10;15.66;13.09;0.61
73616;SPS30;61913;52.312;4.858;2023-04-25T04:00:50;2.79;2.64;2.36;1.90;15.21;15.19;15.12;14.72;12.33;0.60
73616;SPS30;61913;52.312;4.858;2023-04-25T04:03:17;2.81;2.65;2.36;1.89;15.14;15.12;15.04;14.63;12.24;0.60
73616;SPS30;61913;52.312;4.858;2023-04-25T04:05:44;3.07;2.89;2.55;2.01;16.09;16.07;15.98;15.50;12.89;0.61
73616;SPS30;61913;52.312;4.858;2023-04-25T04:08:11;2.98;2.80;2.47;1.93;15.51;15.49;15.40;14.93;12.40;0.62
73616;SPS30;61913;52.312;4.858;2023-04-25T04:10:38;3.00;2.79;2.40;1.81;14.51;14.48;14.38;13.84;11.34;0.66
73616;SPS30;61913;52.312;4.858;2023-04-25T04:13:04;3.29;3.05;2.61;1.96;15.72;15.69;15.57;14.97;12.23;0.65
73616;SPS30;61913;52.312;4.858;2023-04-25T04:15:31;3.47;3.23;2.81;2.16;17.32;17.29;17.18;16.59;13.67;0.64
73616;SPS30;61913;52.312;4.858;2023-04-25T04:17:59;4.00;3.73;3.23;2.47;19.80;19.76;19.63;18.94;15.58;0.63
73616;SPS30;61913;52.312;4.858;2023-04-25T04:20:29;3.11;2.91;2.55;1.98;15.91;15.89;15.79;15.29;12.66;0.63
73616;SPS30;61913;52.312;4.858;2023-04-25T04:22:56;3.17;2.96;2.56;1.94;15.60;15.57;15.47;14.92;12.25;0.64
73616;SPS30;61913;52.312;4.858;2023-04-25T04:25:23;3.31;3.06;2.60;1.92;15.42;15.39;15.27;14.65;11.89;0.65
73616;SPS30;61913;52.312;4.858;2023-04-25T04:27:50;3.33;3.07;2.60;1.91;15.35;15.32;15.20;14.56;11.80;0.66
73616;SPS30;61913;52.312;4.858;2023-04-25T04:30:22;3.26;3.02;2.60;1.95;15.67;15.64;15.53;14.94;12.22;0.65
73616;SPS30;61913;52.312;4.858;2023-04-25T04:32:50;3.19;2.96;2.53;1.88;15.09;15.06;14.95;14.36;11.70;0.66
73616;SPS30;61913;52.312;4.858;2023-04-25T04:35:17;3.38;3.12;2.64;1.94;15.54;15.51;15.39;14.74;11.93;0.67
73616;SPS30;61913;52.312;4.858;2023-04-25T04:37:43;3.36;3.11;2.64;1.93;15.54;15.51;15.38;14.74;11.94;0.68
73616;SPS30;61913;52.312;4.858;2023-04-25T04:40:11;3.29;3.05;2.61;1.95;15.63;15.60;15.48;14.87;12.13;0.68
73616;SPS30;61913;52.312;4.858;2023-04-25T04:42:38;3.17;2.94;2.54;1.92;15.37;15.34;15.24;14.67;12.02;0.66
73616;SPS30;61913;52.312;4.858;2023-04-25T04:45:05;3.36;3.14;2.73;2.10;16.86;16.83;16.72;16.16;13.33;0.63
73616;SPS30;61913;52.312;4.858;2023-04-25T04:47:31;3.39;3.16;2.74;2.09;16.78;16.75;16.64;16.06;13.21;0.64
73616;SPS30;61913;52.312;4.858;2023-04-25T04:49:59;3.08;2.86;2.46;1.85;14.83;14.80;14.70;14.14;11.56;0.65
73616;SPS30;61913;52.312;4.858;2023-04-25T04:52:25;3.43;3.19;2.74;2.06;16.53;16.50;16.38;15.76;12.89;0.65
73616;SPS30;61913;52.312;4.858;2023-04-25T04:54:52;3.11;2.89;2.50;1.90;15.26;15.23;15.13;14.59;11.98;0.64
73616;SPS30;61913;52.312;4.858;2023-04-25T04:57:18;3.35;3.12;2.71;2.08;16.67;16.64;16.53;15.96;13.15;0.63
73616;SPS30;61913;52.312;4.858;2023-04-25T04:59:45;3.40;3.17;2.74;2.09;16.73;16.70;16.59;16.00;13.15;0.64
73616;SPS30;61913;52.312;4.858;2023-04-25T05:02:12;3.22;3.01;2.63;2.03;16.26;16.23;16.13;15.59;12.87;0.64
73616;SPS30;61913;52.312;4.858;2023-04-25T05:04:38;3.10;2.91;2.56;2.01;16.11;16.09;16.00;15.51;12.88;0.62
73616;SPS30;61913;52.312;4.858;2023-04-25T05:07:05;3.11;2.92;2.57;2.02;16.20;16.18;16.09;15.60;12.97;0.62
73616;SPS30;61913;52.312;4.858;2023-04-25T05:09:32;3.34;3.11;2.69;2.05;16.48;16.45;16.34;15.76;12.96;0.64
73616;SPS30;61913;52.312;4.858;2023-04-25T05:11:58;3.29;3.06;2.64;2.00;16.06;16.03;15.92;15.34;12.59;0.65
73616;SPS30;61913;52.312;4.858;2023-04-25T05:14:25;3.94;3.66;3.15;2.37;19.01;18.98;18.84;18.13;14.84;0.66
73616;SPS30;61913;52.312;4.858;2023-04-25T05:16:51;3.44;3.22;2.80;2.16;17.32;17.30;17.19;16.61;13.71;0.64
73616;SPS30;61913;52.312;4.858;2023-04-25T05:19:18;3.48;3.26;2.87;2.24;17.98;17.96;17.85;17.30;14.36;0.63
73616;SPS30;61913;52.312;4.858;2023-04-25T05:21:44;3.50;3.27;2.86;2.21;17.72;17.69;17.58;17.01;14.06;0.65
73616;SPS30;61913;52.312;4.858;2023-04-25T05:24:11;4.07;3.80;3.31;2.55;20.49;20.46;20.33;19.65;16.22;0.62
73616;SPS30;61913;52.312;4.858;2023-04-25T05:26:38;3.97;3.70;3.21;2.46;19.70;19.67;19.54;18.86;15.52;0.64
73616;SPS30;61913;52.312;4.858;2023-04-25T05:29:04;4.08;3.79;3.28;2.49;19.97;19.93;19.80;19.08;15.66;0.64
73616;SPS30;61913;52.312;4.858;2023-04-25T05:31:32;3.64;3.40;2.97;2.29;18.34;18.31;18.20;17.59;14.52;0.63
73616;SPS30;61913;52.312;4.858;2023-04-25T05:33:59;3.91;3.65;3.19;2.47;19.81;19.78;19.66;19.01;15.72;0.63
73616;SPS30;61913;52.312;4.858;2023-04-25T05:36:25;4.38;4.06;3.49;2.63;21.08;21.04;20.89;20.10;16.44;0.65
73616;SPS30;61913;52.312;4.858;2023-04-25T05:38:52;4.07;3.79;3.28;2.50;20.02;19.98;19.85;19.14;15.72;0.65
73616;SPS30;61913;52.312;4.858;2023-04-25T05:41:19;3.96;3.72;3.27;2.56;20.54;20.51;20.39;19.76;16.41;0.63
73616;SPS30;61913;52.312;4.858;2023-04-25T05:43:46;4.93;4.61;4.03;3.12;25.00;24.96;24.81;24.00;19.83;0.64
73616;SPS30;61913;52.312;4.858;2023-04-25T05:46:16;4.80;4.48;3.89;2.98;23.90;23.86;23.71;22.89;18.85;0.65
73616;SPS30;61913;52.312;4.858;2023-04-25T05:48:46;4.66;4.34;3.76;2.87;23.04;23.00;22.85;22.04;18.13;0.65
73616;SPS30;61913;52.312;4.858;2023-04-25T05:51:12;4.14;3.85;3.33;2.52;20.25;20.22;20.08;19.35;15.88;0.64
73616;SPS30;61913;52.312;4.858;2023-04-25T05:53:39;4.69;4.32;3.66;2.68;21.51;21.47;21.30;20.39;16.50;0.66
73616;SPS30;61913;52.312;4.858;2023-04-25T05:56:05;4.97;4.60;3.91;2.89;23.21;23.16;22.98;22.04;17.91;0.65
73616;SPS30;61913;52.312;4.858;2023-04-25T05:58:32;4.68;4.31;3.63;2.63;21.11;21.06;20.88;19.95;16.08;0.66
73616;SPS30;61913;52.312;4.858;2023-04-25T06:00:58;4.68;4.29;3.58;2.55;20.51;20.46;20.28;19.31;15.46;0.67
73616;SPS30;61913;52.312;4.858;2023-04-25T06:03:25;6.02;5.47;4.48;3.05;24.56;24.50;24.24;22.89;17.98;0.70
73616;SPS30;61913;52.312;4.858;2023-04-25T06:05:52;5.68;5.15;4.18;2.81;22.62;22.56;22.31;21.00;16.39;0.72
73616;SPS30;61913;52.312;4.858;2023-04-25T06:08:19;5.17;4.68;3.80;2.54;20.43;20.37;20.14;18.94;14.74;0.74
73616;SPS30;61913;52.312;4.858;2023-04-25T06:10:46;4.96;4.50;3.67;2.48;19.95;19.90;19.68;18.55;14.52;0.72
73616;SPS30;61913;52.312;4.858;2023-04-25T06:13:12;4.50;4.10;3.39;2.35;18.90;18.85;18.66;17.69;14.01;0.69
73616;SPS30;61913;52.312;4.858;2023-04-25T06:15:39;4.60;4.19;3.44;2.37;19.08;19.03;18.83;17.82;14.06;0.72
73616;SPS30;61913;52.312;4.858;2023-04-25T06:18:06;4.61;4.19;3.41;2.31;18.57;18.52;18.32;17.27;13.51;0.73
73616;SPS30;61913;52.312;4.858;2023-04-25T06:20:33;4.56;4.11;3.30;2.16;17.38;17.33;17.12;16.02;12.35;0.75
73616;SPS30;61913;52.312;4.858;2023-04-25T06:22:59;4.90;4.41;3.53;2.29;18.45;18.40;18.17;16.98;13.03;0.74
73616;SPS30;61913;52.312;4.858;2023-04-25T06:25:26;4.47;4.03;3.22;2.09;16.82;16.77;16.56;15.47;11.87;0.75
73616;SPS30;61913;52.312;4.858;2023-04-25T06:27:53;4.61;4.15;3.31;2.13;17.13;17.07;16.85;15.72;12.01;0.76
73616;SPS30;61913;52.312;4.858;2023-04-25T06:30:19;4.93;4.43;3.52;2.25;18.13;18.07;17.84;16.61;12.66;0.75
73616;SPS30;61913;52.312;4.858;2023-04-25T06:32:48;5.11;4.59;3.64;2.32;18.68;18.62;18.37;17.10;13.00;0.75
73616;SPS30;61913;52.312;4.858;2023-04-25T06:35:15;4.56;4.12;3.31;2.17;17.45;17.40;17.19;16.10;12.41;0.75
73616;SPS30;61913;52.312;4.858;2023-04-25T06:37:42;3.92;3.54;2.85;1.88;15.13;15.09;14.91;13.98;10.81;0.75
73616;SPS30;61913;52.312;4.858;2023-04-25T06:40:08;3.60;3.28;2.69;1.84;14.84;14.80;14.65;13.85;10.91;0.73
73616;SPS30;61913;52.312;4.858;2023-04-25T06:42:35;3.35;3.04;2.48;1.68;13.52;13.48;13.33;12.57;9.84;0.73
73616;SPS30;61913;52.312;4.858;2023-04-25T06:45:02;2.37;2.16;1.77;1.21;9.77;9.74;9.64;9.12;7.18;0.72
73616;SPS30;61913;52.312;4.858;2023-04-25T06:47:28;1.86;1.69;1.40;0.97;7.78;7.76;7.68;7.28;5.76;0.71
73616;SPS30;61913;52.312;4.858;2023-04-25T06:49:56;2.21;2.02;1.67;1.16;9.32;9.29;9.20;8.72;6.91;0.69
73616;SPS30;61913;52.312;4.858;2023-04-25T06:52:22;2.06;1.87;1.51;1.01;8.16;8.14;8.05;7.57;5.90;0.72
73616;SPS30;61913;52.312;4.858;2023-04-25T06:54:49;1.97;1.78;1.43;0.95;7.63;7.60;7.52;7.05;5.46;0.73
73616;SPS30;61913;52.312;4.858;2023-04-25T06:57:16;1.89;1.70;1.36;0.88;7.10;7.08;6.99;6.53;5.01;0.75
73616;SPS30;61913;52.312;4.858;2023-04-25T06:59:43;2.26;2.03;1.62;1.05;8.43;8.40;8.30;7.74;5.93;0.77
73616;SPS30;61913;52.312;4.858;2023-04-25T07:02:09;2.27;2.04;1.61;1.02;8.23;8.20;8.09;7.52;5.70;0.79
73616;SPS30;61913;52.312;4.858;2023-04-25T07:04:36;2.04;1.84;1.46;0.93;7.47;7.44;7.35;6.84;5.20;0.79
73616;SPS30;61913;52.312;4.858;2023-04-25T07:07:03;2.30;2.07;1.64;1.05;8.46;8.44;8.33;7.75;5.90;0.78
73616;SPS30;61913;52.312;4.858;2023-04-25T07:09:30;2.13;1.92;1.53;0.99;7.98;7.95;7.85;7.33;5.62;0.78
73616;SPS30;61913;52.312;4.858;2023-04-25T07:11:56;2.22;2.00;1.60;1.05;8.44;8.41;8.31;7.77;5.98;0.77
73616;SPS30;61913;52.312;4.858;2023-04-25T07:14:23;2.66;2.41;1.94;1.29;10.38;10.35;10.23;9.61;7.45;0.76
73616;SPS30;61913;52.312;4.858;2023-04-25T07:16:49;2.76;2.50;2.02;1.33;10.75;10.72;10.59;9.94;7.71;0.75
73616;SPS30;61913;52.312;4.858;2023-04-25T07:19:16;2.81;2.54;2.06;1.37;11.06;11.03;10.90;10.25;7.97;0.74
73616;SPS30;61913;52.312;4.858;2023-04-25T07:21:42;3.16;2.87;2.33;1.58;12.69;12.66;12.52;11.80;9.23;0.74
73616;SPS30;61913;52.312;4.858;2023-04-25T07:24:09;3.62;3.27;2.64;1.75;14.11;14.07;13.91;13.06;10.13;0.75
73616;SPS30;61913;52.312;4.858;2023-04-25T07:26:36;3.32;3.01;2.44;1.64;13.22;13.18;13.04;12.27;9.58;0.74
73616;SPS30;61913;52.312;4.858;2023-04-25T07:29:02;3.27;2.96;2.41;1.63;13.11;13.08;12.93;12.19;9.53;0.73
73616;SPS30;61913;52.312;4.858;2023-04-25T07:31:29;3.30;3.01;2.47;1.71;13.77;13.73;13.59;12.87;10.18;0.72
73616;SPS30;61913;52.312;4.858;2023-04-25T07:33:55;3.40;3.09;2.53;1.72;13.84;13.81;13.66;12.89;10.12;0.73
73616;SPS30;61913;52.312;4.858;2023-04-25T07:36:22;3.37;3.06;2.50;1.70;13.70;13.66;13.52;12.76;10.01;0.72
73616;SPS30;61913;52.312;4.858;2023-04-25T07:38:48;3.64;3.29;2.64;1.74;13.98;13.94;13.77;12.90;9.96;0.76
73616;SPS30;61913;52.312;4.858;2023-04-25T07:41:15;3.42;3.08;2.47;1.60;12.92;12.88;12.72;11.89;9.14;0.77
73616;SPS30;61913;52.312;4.858;2023-04-25T07:43:42;3.73;3.37;2.71;1.77;14.29;14.25;14.08;13.18;10.17;0.76
73616;SPS30;61913;52.312;4.858;2023-04-25T07:46:08;3.42;3.07;2.45;1.59;12.78;12.74;12.58;11.75;9.00;0.78
73616;SPS30;61913;52.312;4.858;2023-04-25T07:48:35;3.38;3.03;2.40;1.52;12.23;12.19;12.02;11.17;8.46;0.79
73616;SPS30;61913;52.312;4.858;2023-04-25T07:51:02;3.78;3.38;2.65;1.65;13.31;13.27;13.08;12.11;9.09;0.81
73616;SPS30;61913;52.312;4.858;2023-04-25T07:53:30;4.29;3.84;3.03;1.91;15.38;15.33;15.12;14.03;10.60;0.80
73616;SPS30;61913;52.312;4.858;2023-04-25T07:55:58;6.30;5.59;4.29;2.52;20.39;20.31;19.97;18.24;13.26;0.85
73616;SPS30;61913;52.312;4.858;2023-04-25T07:58:24;5.60;4.94;3.76;2.14;17.32;17.25;16.95;15.36;10.96;0.86
73616;SPS30;61913;52.312;4.858;2023-04-25T08:00:51;4.94;4.38;3.37;1.99;16.12;16.05;15.80;14.45;10.54;0.83
73616;SPS30;61913;52.312;4.858;2023-04-25T08:03:18;3.76;3.37;2.65;1.66;13.35;13.30;13.12;12.16;9.15;0.79
73616;SPS30;61913;52.312;4.858;2023-04-25T08:05:45;3.36;3.03;2.42;1.57;12.64;12.60;12.44;11.62;8.92;0.75
73616;SPS30;61913;52.312;4.858;2023-04-25T08:08:12;3.51;3.16;2.53;1.64;13.19;13.15;12.99;12.13;9.31;0.74
73616;SPS30;61913;52.312;4.858;2023-04-25T08:10:39;3.89;3.49;2.78;1.79;14.41;14.36;14.18;13.22;10.10;0.75
73616;SPS30;61913;52.312;4.858;2023-04-25T08:13:05;3.35;3.01;2.39;1.53;12.30;12.26;12.10;11.26;8.57;0.77
73616;SPS30;61913;52.312;4.858;2023-04-25T08:15:32;3.93;3.52;2.78;1.76;14.16;14.12;13.93;12.93;9.79;0.78
73616;SPS30;61913;52.312;4.858;2023-04-25T08:17:58;3.34;3.00;2.39;1.53;12.37;12.33;12.17;11.35;8.66;0.78
73616;SPS30;61913;52.312;4.858;2023-04-25T08:20:25;3.68;3.31;2.65;1.72;13.84;13.79;13.62;12.73;9.77;0.78
73616;SPS30;61913;52.312;4.858;2023-04-25T08:22:52;3.10;2.79;2.23;1.44;11.62;11.59;11.44;10.69;8.19;0.79
73616;SPS30;61913;52.312;4.858;2023-04-25T08:25:19;2.98;2.68;2.13;1.36;10.98;10.95;10.81;10.07;7.67;0.80
73616;SPS30;61913;52.312;4.858;2023-04-25T08:27:45;2.84;2.55;2.02;1.28;10.34;10.31;10.17;9.46;7.19;0.81
73616;SPS30;61913;52.312;4.858;2023-04-25T08:30:12;3.25;2.92;2.32;1.49;11.99;11.95;11.79;10.99;8.38;0.80
73616;SPS30;61913;52.312;4.858;2023-04-25T08:32:39;2.53;2.27;1.82;1.18;9.48;9.45;9.33;8.71;6.68;0.79
73616;SPS30;61913;52.312;4.858;2023-04-25T08:35:06;2.94;2.63;2.08;1.31;10.58;10.54;10.40;9.66;7.31;0.80
73616;SPS30;61913;52.312;4.858;2023-04-25T08:37:33;3.41;3.05;2.38;1.47;11.84;11.80;11.63;10.74;8.02;0.81
73616;SPS30;61913;52.312;4.858;2023-04-25T08:39:59;2.97;2.66;2.10;1.32;10.65;10.61;10.47;9.72;7.34;0.78
73616;SPS30;61913;52.312;4.858;2023-04-25T08:42:26;2.80;2.51;1.99;1.26;10.18;10.15;10.02;9.31;7.07;0.77
73616;SPS30;61913;52.312;4.858;2023-04-25T08:44:53;2.79;2.50;1.98;1.25;10.11;10.08;9.94;9.24;7.01;0.77
73616;SPS30;61913;52.312;4.858;2023-04-25T08:47:22;2.74;2.46;1.94;1.22;9.85;9.82;9.69;9.00;6.80;0.79
73616;SPS30;61913;52.312;4.858;2023-04-25T08:49:49;2.75;2.46;1.94;1.21;9.74;9.70;9.57;8.86;6.66;0.79
73616;SPS30;61913;52.312;4.858;2023-04-25T08:52:16;3.18;2.85;2.24;1.40;11.27;11.23;11.08;10.26;7.72;0.78
73616;SPS30;61913;52.312;4.858;2023-04-25T08:54:48;3.03;2.71;2.13;1.33;10.75;10.71;10.56;9.79;7.37;0.79
73616;SPS30;61913;52.312;4.858;2023-04-25T08:57:16;3.46;3.08;2.38;1.42;11.44;11.40;11.22;10.28;7.54;0.83
73616;SPS30;61913;52.312;4.858;2023-04-25T08:59:43;3.38;3.01;2.34;1.42;11.45;11.41;11.23;10.33;7.65;0.83
73616;SPS30;61913;52.312;4.858;2023-04-25T09:02:12;3.29;2.93;2.27;1.37;11.07;11.03;10.86;9.99;7.38;0.83
73616;SPS30;61913;52.312;4.858;2023-04-25T09:04:44;3.27;2.92;2.30;1.43;11.55;11.51;11.35;10.51;7.90;0.80
73616;SPS30;61913;52.312;4.858;2023-04-25T09:07:11;2.58;2.31;1.83;1.16;9.37;9.34;9.21;8.57;6.50;0.79
73616;SPS30;61913;52.312;4.858;2023-04-25T09:09:38;2.98;2.68;2.13;1.36;10.98;10.95;10.81;10.07;7.67;0.79
73616;SPS30;61913;52.312;4.858;2023-04-25T09:12:05;2.65;2.39;1.93;1.28;10.27;10.24;10.12;9.50;7.35;0.76